sensor_id;sensor_type;location;lat;lon;timestamp;pressure;altitude;pressure_sealevel;temperature;humidity
53908;BME280;40469;47.998;7.794;2022-07-03T00:00:13;99142.06;;;19.76;70.08
53908;BME280;40469;47.998;7.794;2022-07-03T00:02:39;99150.78;;;19.78;69.60
53908;BME280;40469;47.998;7.794;2022-07-03T00:05:04;99153.31;;;19.81;69.27
53908;BME280;40469;47.998;7.794;2022-07-03T00:07:31;99154.81;;;19.87;69.33
53908;BME280;40469;47.998;7.794;2022-07-03T00:09:56;99147.81;;;19.86;69.31
53908;BME280;40469;47.998;7.794;2022-07-03T00:12:21;99150.53;;;19.84;69.33
53908;BME280;40469;47.998;7.794;2022-07-03T00:14:47;99147.75;;;19.87;69.62
53908;BME280;40469;47.998;7.794;2022-07-03T00:17:13;99145.72;;;19.74;69.66
53908;BME280;40469;47.998;7.794;2022-07-03T00:19:38;99155.56;;;19.70;69.70
53908;BME280;40469;47.998;7.794;2022-07-03T00:22:05;99155.44;;;19.73;70.20
53908;BME280;40469;47.998;7.794;2022-07-03T00:24:48;99158.28;;;19.68;70.19
53908;BME280;40469;47.998;7.794;2022-07-03T00:27:16;99157.78;;;19.59;70.58
53908;BME280;40469;47.998;7.794;2022-07-03T00:29:43;99160.53;;;19.57;70.86
53908;BME280;40469;47.998;7.794;2022-07-03T00:32:14;99166.03;;;19.52;71.37
53908;BME280;40469;47.998;7.794;2022-07-03T00:34:44;99163.84;;;19.42;72.15
53908;BME280;40469;47.998;7.794;2022-07-03T00:37:11;99162.25;;;19.38;72.44
53908;BME280;40469;47.998;7.794;2022-07-03T00:39:38;99163.13;;;19.38;72.57
53908;BME280;40469;47.998;7.794;2022-07-03T00:42:05;99166.69;;;19.37;72.98
53908;BME280;40469;47.998;7.794;2022-07-03T00:44:34;99167.88;;;19.30;72.29
53908;BME280;40469;47.998;7.794;2022-07-03T00:47:02;99159.38;;;19.22;72.66
53908;BME280;40469;47.998;7.794;2022-07-03T00:49:29;99159.66;;;19.16;72.57
53908;BME280;40469;47.998;7.794;2022-07-03T00:51:56;99165.78;;;19.16;72.59
53908;BME280;40469;47.998;7.794;2022-07-03T00:54:24;99166.00;;;19.11;72.68
53908;BME280;40469;47.998;7.794;2022-07-03T00:56:52;99167.09;;;19.06;72.75
53908;BME280;40469;47.998;7.794;2022-07-03T00:59:18;99166.44;;;19.01;73.06
53908;BME280;40469;47.998;7.794;2022-07-03T01:01:44;99170.81;;;19.02;72.94
53908;BME280;40469;47.998;7.794;2022-07-03T01:04:29;99167.06;;;18.85;74.42
53908;BME280;40469;47.998;7.794;2022-07-03T01:07:06;99165.56;;;18.78;75.50
53908;BME280;40469;47.998;7.794;2022-07-03T01:10:04;99174.66;;;18.71;74.61
53908;BME280;40469;47.998;7.794;2022-07-03T01:15:15;99169.59;;;18.65;74.91
53908;BME280;40469;47.998;7.794;2022-07-03T01:17:55;99166.22;;;18.61;75.78
53908;BME280;40469;47.998;7.794;2022-07-03T01:20:27;99171.34;;;18.66;74.73
53908;BME280;40469;47.998;7.794;2022-07-03T01:22:55;99168.06;;;18.59;74.43
53908;BME280;40469;47.998;7.794;2022-07-03T01:30:36;99165.97;;;18.45;73.02
53908;BME280;40469;47.998;7.794;2022-07-03T01:33:09;99168.50;;;18.48;72.63
53908;BME280;40469;47.998;7.794;2022-07-03T01:35:38;99168.19;;;18.56;72.92
53908;BME280;40469;47.998;7.794;2022-07-03T01:38:10;99169.91;;;18.57;72.77
53908;BME280;40469;47.998;7.794;2022-07-03T01:40:39;99166.69;;;18.49;73.59
53908;BME280;40469;47.998;7.794;2022-07-03T01:43:09;99161.72;;;18.41;74.06
53908;BME280;40469;47.998;7.794;2022-07-03T01:45:42;99157.81;;;18.28;75.04
53908;BME280;40469;47.998;7.794;2022-07-03T01:48:10;99163.09;;;18.28;74.95
53908;BME280;40469;47.998;7.794;2022-07-03T01:50:36;99157.06;;;18.24;73.89
53908;BME280;40469;47.998;7.794;2022-07-03T01:53:03;99150.19;;;18.20;73.88
53908;BME280;40469;47.998;7.794;2022-07-03T01:55:31;99148.75;;;18.11;74.00
53908;BME280;40469;47.998;7.794;2022-07-03T01:57:57;99143.41;;;18.13;74.61
53908;BME280;40469;47.998;7.794;2022-07-03T02:00:23;99145.78;;;17.97;75.02
53908;BME280;40469;47.998;7.794;2022-07-03T02:02:59;99145.31;;;18.09;74.33
53908;BME280;40469;47.998;7.794;2022-07-03T02:05:31;99150.66;;;18.08;73.72
53908;BME280;40469;47.998;7.794;2022-07-03T02:08:33;99148.63;;;17.91;73.93
53908;BME280;40469;47.998;7.794;2022-07-03T02:11:19;99150.41;;;17.90;74.44
53908;BME280;40469;47.998;7.794;2022-07-03T02:22:14;99161.09;;;17.87;73.50
53908;BME280;40469;47.998;7.794;2022-07-03T02:24:44;99162.94;;;17.84;73.38
53908;BME280;40469;47.998;7.794;2022-07-03T02:27:19;99168.19;;;17.85;73.73
53908;BME280;40469;47.998;7.794;2022-07-03T02:29:49;99166.25;;;17.90;73.46
53908;BME280;40469;47.998;7.794;2022-07-03T02:32:20;99174.13;;;17.92;73.47
53908;BME280;40469;47.998;7.794;2022-07-03T02:34:56;99176.50;;;17.74;74.87
53908;BME280;40469;47.998;7.794;2022-07-03T02:37:23;99165.63;;;17.82;74.29
53908;BME280;40469;47.998;7.794;2022-07-03T02:40:16;99173.78;;;17.76;74.08
53908;BME280;40469;47.998;7.794;2022-07-03T02:45:57;99180.38;;;17.64;74.95
53908;BME280;40469;47.998;7.794;2022-07-03T02:48:40;99173.16;;;17.69;74.31
53908;BME280;40469;47.998;7.794;2022-07-03T02:51:13;99180.16;;;17.70;74.47
53908;BME280;40469;47.998;7.794;2022-07-03T02:53:53;99179.19;;;17.73;74.26
53908;BME280;40469;47.998;7.794;2022-07-03T03:05:13;99175.03;;;17.66;73.61
53908;BME280;40469;47.998;7.794;2022-07-03T03:07:55;99173.44;;;17.61;73.85
53908;BME280;40469;47.998;7.794;2022-07-03T03:10:24;99187.63;;;17.57;73.93
53908;BME280;40469;47.998;7.794;2022-07-03T03:13:03;99186.81;;;17.55;73.87
53908;BME280;40469;47.998;7.794;2022-07-03T03:15:33;99193.84;;;17.56;74.07
53908;BME280;40469;47.998;7.794;2022-07-03T03:18:07;99187.09;;;17.48;74.84
53908;BME280;40469;47.998;7.794;2022-07-03T03:20:36;99191.06;;;17.34;75.83
53908;BME280;40469;47.998;7.794;2022-07-03T03:23:35;99189.47;;;17.30;76.13
53908;BME280;40469;47.998;7.794;2022-07-03T03:26:03;99196.56;;;17.28;75.80
53908;BME280;40469;47.998;7.794;2022-07-03T03:28:28;99187.00;;;17.24;75.71
53908;BME280;40469;47.998;7.794;2022-07-03T03:30:54;99196.88;;;17.19;75.70
53908;BME280;40469;47.998;7.794;2022-07-03T03:33:20;99192.56;;;17.16;75.38
53908;BME280;40469;47.998;7.794;2022-07-03T03:35:47;99196.94;;;17.17;75.37
53908;BME280;40469;47.998;7.794;2022-07-03T03:38:12;99198.59;;;17.20;75.32
53908;BME280;40469;47.998;7.794;2022-07-03T03:40:37;99196.63;;;17.27;74.75
53908;BME280;40469;47.998;7.794;2022-07-03T03:43:03;99202.97;;;17.21;74.50
53908;BME280;40469;47.998;7.794;2022-07-03T03:45:29;99199.44;;;17.20;74.56
53908;BME280;40469;47.998;7.794;2022-07-03T03:47:54;99202.38;;;17.11;75.34
53908;BME280;40469;47.998;7.794;2022-07-03T03:50:20;99205.97;;;17.10;75.55
53908;BME280;40469;47.998;7.794;2022-07-03T03:52:45;99198.13;;;17.07;75.86
53908;BME280;40469;47.998;7.794;2022-07-03T03:55:12;99207.63;;;17.13;75.42
53908;BME280;40469;47.998;7.794;2022-07-03T03:57:37;99204.22;;;17.09;75.35
53908;BME280;40469;47.998;7.794;2022-07-03T04:00:04;99211.09;;;17.13;75.59
53908;BME280;40469;47.998;7.794;2022-07-03T04:02:30;99212.34;;;17.03;75.52
53908;BME280;40469;47.998;7.794;2022-07-03T04:04:55;99209.53;;;17.08;75.34
53908;BME280;40469;47.998;7.794;2022-07-03T04:07:21;99217.38;;;17.11;75.15
53908;BME280;40469;47.998;7.794;2022-07-03T04:09:46;99213.03;;;17.08;74.42
53908;BME280;40469;47.998;7.794;2022-07-03T04:12:12;99223.53;;;17.10;74.53
53908;BME280;40469;47.998;7.794;2022-07-03T04:14:37;99220.75;;;17.14;74.26
53908;BME280;40469;47.998;7.794;2022-07-03T04:17:03;99224.34;;;17.12;73.97
53908;BME280;40469;47.998;7.794;2022-07-03T04:19:28;99217.28;;;17.14;74.33
53908;BME280;40469;47.998;7.794;2022-07-03T04:21:56;99218.19;;;17.13;74.57
53908;BME280;40469;47.998;7.794;2022-07-03T04:24:22;99215.53;;;17.13;74.13
53908;BME280;40469;47.998;7.794;2022-07-03T04:26:47;99223.13;;;17.22;74.02
53908;BME280;40469;47.998;7.794;2022-07-03T04:29:13;99218.53;;;17.29;73.54
53908;BME280;40469;47.998;7.794;2022-07-03T04:31:38;99220.16;;;17.33;73.14
53908;BME280;40469;47.998;7.794;2022-07-03T04:34:03;99219.09;;;17.38;72.70
53908;BME280;40469;47.998;7.794;2022-07-03T04:36:29;99216.59;;;17.34;72.66
53908;BME280;40469;47.998;7.794;2022-07-03T04:38:54;99217.28;;;17.40;72.26
53908;BME280;40469;47.998;7.794;2022-07-03T04:41:20;99221.47;;;17.46;71.60
53908;BME280;40469;47.998;7.794;2022-07-03T04:43:45;99216.34;;;17.41;72.08
53908;BME280;40469;47.998;7.794;2022-07-03T04:46:11;99220.56;;;17.47;71.79
53908;BME280;40469;47.998;7.794;2022-07-03T04:48:36;99217.84;;;17.49;71.79
53908;BME280;40469;47.998;7.794;2022-07-03T04:51:01;99224.81;;;17.51;71.08
53908;BME280;40469;47.998;7.794;2022-07-03T04:53:27;99223.78;;;17.55;71.19
53908;BME280;40469;47.998;7.794;2022-07-03T04:55:52;99232.53;;;17.57;70.93
53908;BME280;40469;47.998;7.794;2022-07-03T04:58:17;99233.28;;;17.61;70.48
53908;BME280;40469;47.998;7.794;2022-07-03T05:00:44;99228.75;;;17.65;70.67
53908;BME280;40469;47.998;7.794;2022-07-03T05:03:09;99233.03;;;17.69;70.44
53908;BME280;40469;47.998;7.794;2022-07-03T05:05:35;99236.47;;;17.71;70.04
53908;BME280;40469;47.998;7.794;2022-07-03T05:08:00;99235.56;;;17.72;69.74
53908;BME280;40469;47.998;7.794;2022-07-03T05:10:26;99238.25;;;17.70;70.36
53908;BME280;40469;47.998;7.794;2022-07-03T05:12:52;99231.19;;;17.71;70.02
53908;BME280;40469;47.998;7.794;2022-07-03T05:15:17;99238.13;;;17.73;69.62
53908;BME280;40469;47.998;7.794;2022-07-03T05:17:43;99236.31;;;17.75;69.57
53908;BME280;40469;47.998;7.794;2022-07-03T05:20:09;99241.34;;;17.83;69.57
53908;BME280;40469;47.998;7.794;2022-07-03T05:23:00;99239.47;;;17.87;68.87
53908;BME280;40469;47.998;7.794;2022-07-03T05:25:27;99243.78;;;17.89;68.08
53908;BME280;40469;47.998;7.794;2022-07-03T05:27:53;99242.81;;;17.92;67.54
53908;BME280;40469;47.998;7.794;2022-07-03T05:30:22;99247.13;;;17.94;66.85
53908;BME280;40469;47.998;7.794;2022-07-03T05:32:49;99246.81;;;18.04;67.42
53908;BME280;40469;47.998;7.794;2022-07-03T05:35:15;99245.78;;;18.08;67.84
53908;BME280;40469;47.998;7.794;2022-07-03T05:37:41;99248.38;;;18.09;67.90
53908;BME280;40469;47.998;7.794;2022-07-03T05:40:07;99249.75;;;18.19;67.69
53908;BME280;40469;47.998;7.794;2022-07-03T05:42:33;99243.50;;;18.22;67.50
53908;BME280;40469;47.998;7.794;2022-07-03T05:44:58;99245.03;;;18.28;67.27
53908;BME280;40469;47.998;7.794;2022-07-03T05:47:24;99245.69;;;18.34;66.95
53908;BME280;40469;47.998;7.794;2022-07-03T05:49:49;99237.53;;;18.41;65.88
53908;BME280;40469;47.998;7.794;2022-07-03T05:52:15;99238.09;;;18.49;65.44
53908;BME280;40469;47.998;7.794;2022-07-03T05:54:41;99238.63;;;18.59;65.47
53908;BME280;40469;47.998;7.794;2022-07-03T05:57:07;99236.53;;;18.67;64.46
53908;BME280;40469;47.998;7.794;2022-07-03T05:59:33;99232.97;;;18.68;64.37
53908;BME280;40469;47.998;7.794;2022-07-03T06:01:58;99241.59;;;18.73;65.02
53908;BME280;40469;47.998;7.794;2022-07-03T06:04:24;99235.06;;;18.83;63.41
53908;BME280;40469;47.998;7.794;2022-07-03T06:06:49;99234.84;;;18.88;64.12
53908;BME280;40469;47.998;7.794;2022-07-03T06:09:15;99237.22;;;18.96;63.83
53908;BME280;40469;47.998;7.794;2022-07-03T06:11:40;99228.28;;;18.98;64.38
53908;BME280;40469;47.998;7.794;2022-07-03T06:14:06;99237.81;;;19.02;64.48
53908;BME280;40469;47.998;7.794;2022-07-03T06:16:31;99227.09;;;19.05;65.29
53908;BME280;40469;47.998;7.794;2022-07-03T06:18:58;99236.28;;;19.19;64.92
53908;BME280;40469;47.998;7.794;2022-07-03T06:21:24;99233.50;;;19.22;63.44
53908;BME280;40469;47.998;7.794;2022-07-03T06:23:49;99228.88;;;19.27;62.89
53908;BME280;40469;47.998;7.794;2022-07-03T06:26:15;99236.47;;;19.36;61.64
53908;BME280;40469;47.998;7.794;2022-07-03T06:28:41;99235.28;;;19.43;61.62
53908;BME280;40469;47.998;7.794;2022-07-03T06:31:06;99235.94;;;19.48;62.02
53908;BME280;40469;47.998;7.794;2022-07-03T06:33:34;99240.84;;;19.58;59.73
53908;BME280;40469;47.998;7.794;2022-07-03T06:36:00;99232.69;;;19.62;60.21
53908;BME280;40469;47.998;7.794;2022-07-03T06:38:25;99234.91;;;19.73;59.76
53908;BME280;40469;47.998;7.794;2022-07-03T06:40:51;99227.50;;;19.81;59.63
53908;BME280;40469;47.998;7.794;2022-07-03T06:43:16;99235.31;;;19.84;60.31
53908;BME280;40469;47.998;7.794;2022-07-03T06:45:42;99232.56;;;19.87;61.37
53908;BME280;40469;47.998;7.794;2022-07-03T06:48:07;99231.47;;;19.92;59.96
53908;BME280;40469;47.998;7.794;2022-07-03T06:50:33;99223.19;;;19.99;59.60
53908;BME280;40469;47.998;7.794;2022-07-03T06:52:58;99218.47;;;20.06;59.09
53908;BME280;40469;47.998;7.794;2022-07-03T06:55:23;99223.50;;;20.12;59.90
53908;BME280;40469;47.998;7.794;2022-07-03T06:57:48;99219.72;;;20.18;59.29
53908;BME280;40469;47.998;7.794;2022-07-03T07:00:14;99230.13;;;20.22;59.36
53908;BME280;40469;47.998;7.794;2022-07-03T07:02:39;99223.50;;;20.31;59.67
53908;BME280;40469;47.998;7.794;2022-07-03T07:05:05;99225.72;;;20.42;59.79
53908;BME280;40469;47.998;7.794;2022-07-03T07:07:31;99230.00;;;20.44;60.45
53908;BME280;40469;47.998;7.794;2022-07-03T07:09:56;99228.63;;;20.55;61.05
53908;BME280;40469;47.998;7.794;2022-07-03T07:12:22;99226.69;;;20.58;60.58
53908;BME280;40469;47.998;7.794;2022-07-03T07:14:47;99230.63;;;20.70;60.63
53908;BME280;40469;47.998;7.794;2022-07-03T07:17:13;99237.75;;;20.87;59.41
53908;BME280;40469;47.998;7.794;2022-07-03T07:19:38;99245.13;;;20.99;58.87
53908;BME280;40469;47.998;7.794;2022-07-03T07:22:03;99239.38;;;21.09;59.34
53908;BME280;40469;47.998;7.794;2022-07-03T07:24:29;99240.91;;;21.14;59.49
53908;BME280;40469;47.998;7.794;2022-07-03T07:26:55;99235.41;;;21.17;58.86
53908;BME280;40469;47.998;7.794;2022-07-03T07:29:20;99238.78;;;21.21;59.92
53908;BME280;40469;47.998;7.794;2022-07-03T07:31:45;99234.28;;;21.40;58.72
53908;BME280;40469;47.998;7.794;2022-07-03T07:34:11;99232.72;;;21.36;58.99
53908;BME280;40469;47.998;7.794;2022-07-03T07:36:37;99236.00;;;21.42;59.50
53908;BME280;40469;47.998;7.794;2022-07-03T07:39:03;99229.00;;;21.58;57.38
53908;BME280;40469;47.998;7.794;2022-07-03T07:41:28;99234.94;;;21.63;57.35
53908;BME280;40469;47.998;7.794;2022-07-03T07:43:53;99228.06;;;21.76;56.81
53908;BME280;40469;47.998;7.794;2022-07-03T07:46:19;99221.72;;;21.79;57.38
53908;BME280;40469;47.998;7.794;2022-07-03T07:48:44;99217.81;;;21.86;57.06
53908;BME280;40469;47.998;7.794;2022-07-03T07:51:10;99214.91;;;21.91;57.05
53908;BME280;40469;47.998;7.794;2022-07-03T07:53:35;99218.03;;;21.99;57.45
53908;BME280;40469;47.998;7.794;2022-07-03T07:56:01;99220.41;;;22.21;55.47
53908;BME280;40469;47.998;7.794;2022-07-03T07:58:26;99204.09;;;22.45;53.83
53908;BME280;40469;47.998;7.794;2022-07-03T08:00:52;99211.81;;;22.65;53.83
53908;BME280;40469;47.998;7.794;2022-07-03T08:03:35;99212.25;;;22.58;54.68
53908;BME280;40469;47.998;7.794;2022-07-03T08:06:19;99214.56;;;22.64;55.63
53908;BME280;40469;47.998;7.794;2022-07-03T08:08:45;99210.72;;;22.85;52.89
53908;BME280;40469;47.998;7.794;2022-07-03T08:11:10;99210.53;;;22.88;51.57
53908;BME280;40469;47.998;7.794;2022-07-03T08:13:35;99215.38;;;22.98;52.13
53908;BME280;40469;47.998;7.794;2022-07-03T08:16:01;99207.84;;;23.04;52.96
53908;BME280;40469;47.998;7.794;2022-07-03T08:18:27;99208.63;;;23.22;51.21
53908;BME280;40469;47.998;7.794;2022-07-03T08:20:52;99204.59;;;23.15;53.13
53908;BME280;40469;47.998;7.794;2022-07-03T08:23:18;99202.63;;;23.19;52.51
53908;BME280;40469;47.998;7.794;2022-07-03T08:25:43;99207.88;;;23.51;50.35
53908;BME280;40469;47.998;7.794;2022-07-03T08:28:08;99201.50;;;23.53;49.47
53908;BME280;40469;47.998;7.794;2022-07-03T08:30:34;99200.78;;;23.65;48.46
53908;BME280;40469;47.998;7.794;2022-07-03T08:32:59;99200.03;;;23.78;47.15
53908;BME280;40469;47.998;7.794;2022-07-03T08:35:25;99205.22;;;23.81;49.16
53908;BME280;40469;47.998;7.794;2022-07-03T08:37:51;99204.16;;;23.83;46.94
53908;BME280;40469;47.998;7.794;2022-07-03T08:40:18;99203.47;;;23.80;47.95
53908;BME280;40469;47.998;7.794;2022-07-03T08:42:46;99210.63;;;23.79;48.35
53908;BME280;40469;47.998;7.794;2022-07-03T08:45:17;99202.09;;;24.03;46.50
53908;BME280;40469;47.998;7.794;2022-07-03T08:47:43;99198.41;;;24.06;44.26
53908;BME280;40469;47.998;7.794;2022-07-03T08:50:13;99204.56;;;24.06;44.77
53908;BME280;40469;47.998;7.794;2022-07-03T08:52:39;99199.25;;;24.06;46.12
53908;BME280;40469;47.998;7.794;2022-07-03T08:55:05;99194.75;;;24.07;46.71
53908;BME280;40469;47.998;7.794;2022-07-03T08:57:32;99192.88;;;24.23;47.95
53908;BME280;40469;47.998;7.794;2022-07-03T09:00:00;99198.66;;;24.30;47.13
53908;BME280;40469;47.998;7.794;2022-07-03T09:02:27;99183.63;;;24.29;47.27
53908;BME280;40469;47.998;7.794;2022-07-03T09:04:52;99196.47;;;24.36;46.31
53908;BME280;40469;47.998;7.794;2022-07-03T09:07:19;99184.53;;;24.42;46.60
53908;BME280;40469;47.998;7.794;2022-07-03T09:09:45;99190.09;;;24.39;45.70
53908;BME280;40469;47.998;7.794;2022-07-03T09:12:11;99178.91;;;24.47;46.84
53908;BME280;40469;47.998;7.794;2022-07-03T09:14:37;99187.22;;;24.56;46.73
53908;BME280;40469;47.998;7.794;2022-07-03T09:17:05;99191.50;;;24.59;45.05
53908;BME280;40469;47.998;7.794;2022-07-03T09:19:43;99187.06;;;24.87;43.32
53908;BME280;40469;47.998;7.794;2022-07-03T09:22:19;99191.59;;;24.99;41.13
53908;BME280;40469;47.998;7.794;2022-07-03T09:24:45;99185.63;;;25.35;40.49
53908;BME280;40469;47.998;7.794;2022-07-03T09:27:16;99180.75;;;25.55;39.08
53908;BME280;40469;47.998;7.794;2022-07-03T09:30:03;99178.97;;;25.68;39.20
53908;BME280;40469;47.998;7.794;2022-07-03T09:32:47;99183.50;;;25.94;39.59
53908;BME280;40469;47.998;7.794;2022-07-03T09:37:58;99189.31;;;26.63;36.33
53908;BME280;40469;47.998;7.794;2022-07-03T09:40:28;99182.94;;;26.77;36.16
53908;BME280;40469;47.998;7.794;2022-07-03T09:43:10;99180.25;;;26.90;37.13
53908;BME280;40469;47.998;7.794;2022-07-03T09:45:58;99171.75;;;27.07;36.69
53908;BME280;40469;47.998;7.794;2022-07-03T09:51:19;99165.28;;;26.98;36.20
53908;BME280;40469;47.998;7.794;2022-07-03T09:56:12;99163.91;;;26.93;35.30
53908;BME280;40469;47.998;7.794;2022-07-03T09:58:38;99149.84;;;27.02;35.41
53908;BME280;40469;47.998;7.794;2022-07-03T10:01:19;99147.19;;;27.13;36.29
53908;BME280;40469;47.998;7.794;2022-07-03T10:03:47;99150.34;;;27.31;35.90
53908;BME280;40469;47.998;7.794;2022-07-03T10:06:13;99149.44;;;27.66;34.62
53908;BME280;40469;47.998;7.794;2022-07-03T10:08:39;99151.91;;;27.80;33.78
53908;BME280;40469;47.998;7.794;2022-07-03T10:11:04;99147.88;;;27.75;31.19
53908;BME280;40469;47.998;7.794;2022-07-03T10:13:32;99142.19;;;28.02;33.63
53908;BME280;40469;47.998;7.794;2022-07-03T10:15:58;99150.22;;;28.36;32.64
53908;BME280;40469;47.998;7.794;2022-07-03T10:18:29;99141.78;;;28.63;32.23
53908;BME280;40469;47.998;7.794;2022-07-03T10:20:57;99146.84;;;28.89;33.59
53908;BME280;40469;47.998;7.794;2022-07-03T10:23:24;99140.97;;;28.95;33.55
53908;BME280;40469;47.998;7.794;2022-07-03T10:25:52;99138.22;;;29.39;33.38
53908;BME280;40469;47.998;7.794;2022-07-03T10:28:18;99130.47;;;29.66;33.54
53908;BME280;40469;47.998;7.794;2022-07-03T10:30:46;99143.63;;;30.12;31.40
53908;BME280;40469;47.998;7.794;2022-07-03T10:33:12;99139.13;;;30.22;30.59
53908;BME280;40469;47.998;7.794;2022-07-03T10:35:40;99137.59;;;30.29;31.21
53908;BME280;40469;47.998;7.794;2022-07-03T10:38:36;99139.00;;;30.23;30.53
53908;BME280;40469;47.998;7.794;2022-07-03T10:44:04;99132.06;;;30.00;30.77
53908;BME280;40469;47.998;7.794;2022-07-03T10:46:47;99134.63;;;30.01;30.49
53908;BME280;40469;47.998;7.794;2022-07-03T10:49:13;99136.28;;;29.83;30.04
53908;BME280;40469;47.998;7.794;2022-07-03T10:54:25;99132.78;;;30.33;31.09
53908;BME280;40469;47.998;7.794;2022-07-03T11:02:26;99126.50;;;30.53;31.05
53908;BME280;40469;47.998;7.794;2022-07-03T11:07:27;99118.84;;;30.88;28.39
53908;BME280;40469;47.998;7.794;2022-07-03T11:18:25;99117.03;;;30.78;30.25
53908;BME280;40469;47.998;7.794;2022-07-03T11:25:44;99107.50;;;30.65;29.78
53908;BME280;40469;47.998;7.794;2022-07-03T11:33:51;99090.22;;;30.96;30.77
53908;BME280;40469;47.998;7.794;2022-07-03T11:41:30;99087.06;;;31.30;30.41
53908;BME280;40469;47.998;7.794;2022-07-03T11:44:09;99079.00;;;31.11;30.03
53908;BME280;40469;47.998;7.794;2022-07-03T11:46:36;99083.09;;;30.76;30.83
53908;BME280;40469;47.998;7.794;2022-07-03T11:49:09;99089.59;;;30.54;31.15
53908;BME280;40469;47.998;7.794;2022-07-03T11:51:35;99083.25;;;30.65;31.22
53908;BME280;40469;47.998;7.794;2022-07-03T11:54:01;99077.97;;;30.63;30.68
53908;BME280;40469;47.998;7.794;2022-07-03T11:56:26;99072.53;;;30.34;31.20
53908;BME280;40469;47.998;7.794;2022-07-03T11:58:55;99075.78;;;30.28;32.26
53908;BME280;40469;47.998;7.794;2022-07-03T12:03:46;99080.81;;;30.52;31.71
53908;BME280;40469;47.998;7.794;2022-07-03T12:06:12;99072.44;;;30.55;31.90
53908;BME280;40469;47.998;7.794;2022-07-03T12:08:37;99067.63;;;30.68;32.18
53908;BME280;40469;47.998;7.794;2022-07-03T12:11:08;99067.09;;;30.94;32.53
53908;BME280;40469;47.998;7.794;2022-07-03T12:13:33;99063.81;;;31.19;31.77
53908;BME280;40469;47.998;7.794;2022-07-03T12:16:04;99062.88;;;31.58;30.08
53908;BME280;40469;47.998;7.794;2022-07-03T12:21:08;99050.38;;;31.94;31.80
53908;BME280;40469;47.998;7.794;2022-07-03T12:23:43;99054.28;;;32.10;30.39
53908;BME280;40469;47.998;7.794;2022-07-03T12:26:09;99050.38;;;31.94;31.05
53908;BME280;40469;47.998;7.794;2022-07-03T12:28:34;99043.47;;;31.82;29.40
53908;BME280;40469;47.998;7.794;2022-07-03T12:31:00;99046.19;;;32.10;30.17
53908;BME280;40469;47.998;7.794;2022-07-03T12:33:25;99038.22;;;32.54;30.37
53908;BME280;40469;47.998;7.794;2022-07-03T12:36:08;99033.47;;;32.66;28.92
53908;BME280;40469;47.998;7.794;2022-07-03T12:38:36;99036.03;;;32.22;28.00
53908;BME280;40469;47.998;7.794;2022-07-03T12:41:09;99031.00;;;31.99;28.73
53908;BME280;40469;47.998;7.794;2022-07-03T12:43:42;99024.78;;;31.99;30.41
53908;BME280;40469;47.998;7.794;2022-07-03T12:46:43;99025.59;;;31.99;28.75
53908;BME280;40469;47.998;7.794;2022-07-03T12:49:10;99020.28;;;31.89;29.76
53908;BME280;40469;47.998;7.794;2022-07-03T12:51:46;99014.72;;;31.91;28.97
53908;BME280;40469;47.998;7.794;2022-07-03T12:54:21;99005.06;;;31.88;28.86
53908;BME280;40469;47.998;7.794;2022-07-03T12:57:10;99007.19;;;31.94;29.58
53908;BME280;40469;47.998;7.794;2022-07-03T13:00:07;98992.16;;;32.10;30.60
53908;BME280;40469;47.998;7.794;2022-07-03T13:02:35;98998.75;;;32.07;31.49
53908;BME280;40469;47.998;7.794;2022-07-03T13:05:02;98996.94;;;31.98;29.78
53908;BME280;40469;47.998;7.794;2022-07-03T13:07:39;98993.94;;;31.73;28.39
53908;BME280;40469;47.998;7.794;2022-07-03T13:10:05;98998.47;;;31.73;28.96
53908;BME280;40469;47.998;7.794;2022-07-03T13:12:31;98997.03;;;31.79;29.63
53908;BME280;40469;47.998;7.794;2022-07-03T13:15:00;98989.78;;;31.79;31.01
53908;BME280;40469;47.998;7.794;2022-07-03T13:18:02;98987.09;;;31.69;28.98
53908;BME280;40469;47.998;7.794;2022-07-03T13:20:30;98982.81;;;31.77;28.12
53908;BME280;40469;47.998;7.794;2022-07-03T13:22:58;98980.81;;;31.51;27.90
53908;BME280;40469;47.998;7.794;2022-07-03T13:25:24;98980.38;;;31.55;29.21
53908;BME280;40469;47.998;7.794;2022-07-03T13:27:50;98983.72;;;31.67;29.92
53908;BME280;40469;47.998;7.794;2022-07-03T13:30:16;98983.31;;;31.62;27.94
53908;BME280;40469;47.998;7.794;2022-07-03T13:32:42;98980.72;;;31.33;27.80
53908;BME280;40469;47.998;7.794;2022-07-03T13:35:08;98984.50;;;31.50;29.74
53908;BME280;40469;47.998;7.794;2022-07-03T13:37:34;98988.75;;;31.43;28.40
53908;BME280;40469;47.998;7.794;2022-07-03T13:40:00;98990.50;;;31.34;29.03
53908;BME280;40469;47.998;7.794;2022-07-03T13:42:26;98982.25;;;31.35;29.14
53908;BME280;40469;47.998;7.794;2022-07-03T13:44:51;98976.69;;;31.47;30.35
53908;BME280;40469;47.998;7.794;2022-07-03T13:47:16;98970.06;;;31.69;29.76
53908;BME280;40469;47.998;7.794;2022-07-03T13:49:42;98974.50;;;31.60;29.83
53908;BME280;40469;47.998;7.794;2022-07-03T13:52:07;98970.03;;;31.79;30.10
53908;BME280;40469;47.998;7.794;2022-07-03T13:54:33;98970.13;;;31.59;29.90
53908;BME280;40469;47.998;7.794;2022-07-03T13:56:58;98967.25;;;31.61;29.74
53908;BME280;40469;47.998;7.794;2022-07-03T13:59:24;98959.56;;;31.28;31.09
53908;BME280;40469;47.998;7.794;2022-07-03T14:01:49;98971.47;;;31.35;30.49
53908;BME280;40469;47.998;7.794;2022-07-03T14:04:14;98964.69;;;31.22;30.10
53908;BME280;40469;47.998;7.794;2022-07-03T14:06:40;98959.06;;;31.15;30.68
53908;BME280;40469;47.998;7.794;2022-07-03T14:09:05;98945.25;;;31.28;30.98
53908;BME280;40469;47.998;7.794;2022-07-03T14:11:31;98962.31;;;31.18;30.46
53908;BME280;40469;47.998;7.794;2022-07-03T14:13:56;98959.16;;;31.23;30.56
53908;BME280;40469;47.998;7.794;2022-07-03T14:16:22;98951.25;;;31.12;31.25
53908;BME280;40469;47.998;7.794;2022-07-03T14:18:47;98950.91;;;31.25;30.81
53908;BME280;40469;47.998;7.794;2022-07-03T14:21:13;98953.69;;;31.43;32.02
53908;BME280;40469;47.998;7.794;2022-07-03T14:23:38;98946.44;;;31.53;30.72
53908;BME280;40469;47.998;7.794;2022-07-03T14:26:03;98943.19;;;31.49;31.34